createdAt,value
2018-07-14T00:00:53.038Z,6.50
2018-07-14T00:03:21.427Z,6.90
2018-07-14T00:05:49.700Z,6.10
2018-07-14T00:08:18.020Z,6.57
2018-07-14T00:10:46.292Z,6.43
2018-07-14T00:13:14.534Z,6.60
2018-07-14T00:15:42.818Z,6.23
2018-07-14T00:18:11.103Z,7.00
2018-07-14T00:20:39.358Z,6.90
2018-07-14T00:23:07.730Z,7.00
2018-07-14T00:25:41.327Z,6.50
2018-07-14T00:28:10.429Z,6.07
2018-07-14T00:30:38.724Z,5.60
2018-07-14T00:33:07.053Z,5.73
2018-07-14T00:35:35.321Z,6.10
2018-07-14T00:38:03.592Z,5.60
2018-07-14T00:40:31.863Z,6.60
2018-07-14T00:43:00.157Z,6.83
2018-07-14T00:45:29.035Z,7.37
2018-07-14T00:47:57.328Z,7.50
2018-07-14T00:50:25.548Z,7.87
2018-07-14T00:52:53.860Z,8.03
2018-07-14T00:55:22.171Z,7.53
2018-07-14T00:57:50.471Z,6.90
2018-07-14T01:00:19.020Z,6.20
2018-07-14T01:02:47.657Z,6.77
2018-07-14T01:05:16.828Z,6.60
2018-07-14T01:07:45.435Z,6.60
2018-07-14T01:10:14.027Z,6.80
2018-07-14T01:12:42.701Z,7.80
2018-07-14T01:15:11.034Z,7.33
2018-07-14T01:17:39.637Z,7.17
2018-07-14T01:20:08.318Z,7.10
2018-07-14T01:22:43.366Z,7.00
2018-07-14T01:25:12.111Z,6.63
2018-07-14T01:27:40.997Z,7.17
2018-07-14T01:30:09.783Z,6.43
2018-07-14T01:32:38.397Z,6.10
2018-07-14T01:35:07.621Z,6.30
2018-07-14T01:37:36.432Z,6.23
2018-07-14T01:40:05.098Z,5.57
2018-07-14T01:42:33.398Z,6.13
2018-07-14T01:45:01.657Z,5.70
2018-07-14T01:47:30.267Z,6.47
2018-07-14T01:49:58.873Z,8.07
2018-07-14T01:52:28.412Z,8.03
2018-07-14T01:54:56.741Z,7.50
2018-07-14T01:57:25.006Z,8.70
2018-07-14T01:59:54.031Z,7.43
2018-07-14T02:02:22.271Z,7.20
2018-07-14T02:04:50.245Z,7.40
2018-07-14T02:07:18.262Z,7.17
2018-07-14T02:09:46.544Z,6.63
2018-07-14T02:12:14.805Z,6.50
2018-07-14T02:14:43.065Z,6.63
2018-07-14T02:17:11.334Z,6.47
2018-07-14T02:19:39.562Z,6.97
2018-07-14T02:22:07.858Z,7.90
2018-07-14T02:24:36.155Z,6.20
2018-07-14T02:27:04.436Z,7.00
2018-07-14T02:29:32.726Z,7.10
2018-07-14T02:32:01.001Z,6.47
2018-07-14T02:34:29.237Z,7.00
2018-07-14T02:36:57.286Z,6.33
2018-07-14T02:39:25.540Z,6.83
2018-07-14T02:41:53.861Z,6.50
2018-07-14T02:44:22.140Z,5.73
2018-07-14T02:46:50.451Z,7.17
2018-07-14T02:49:18.732Z,6.40
2018-07-14T02:51:47.030Z,6.23
2018-07-14T02:54:15.303Z,5.53
2018-07-14T02:56:43.557Z,5.30
2018-07-14T02:59:11.838Z,5.43
2018-07-14T03:01:40.213Z,6.10
2018-07-14T03:04:08.460Z,6.77
2018-07-14T03:06:36.739Z,6.00
2018-07-14T03:09:06.268Z,5.63
2018-07-14T03:11:34.542Z,6.20
2018-07-14T03:14:02.961Z,5.53
2018-07-14T03:16:31.211Z,5.93
2018-07-14T03:18:59.454Z,7.27
2018-07-14T03:21:27.724Z,5.20
2018-07-14T03:23:56.027Z,5.40
2018-07-14T03:26:25.124Z,6.43
2018-07-14T03:28:53.380Z,6.77
2018-07-14T03:31:21.576Z,6.63
2018-07-14T03:33:49.851Z,8.40
2018-07-14T03:36:18.136Z,8.00
2018-07-14T03:38:46.426Z,8.07
2018-07-14T03:41:14.636Z,7.60
2018-07-14T03:43:42.918Z,7.67
2018-07-14T03:46:10.929Z,6.40
2018-07-14T03:48:39.179Z,7.00
2018-07-14T03:51:07.605Z,7.20
2018-07-14T03:53:35.955Z,6.63
2018-07-14T03:56:04.528Z,5.97
2018-07-14T03:58:32.864Z,6.47
2018-07-14T04:01:01.138Z,5.90
2018-07-14T04:03:29.471Z,6.30
2018-07-14T04:05:57.772Z,6.07
2018-07-14T04:08:26.637Z,7.17
2018-07-14T04:10:54.892Z,6.43
2018-07-14T04:13:23.168Z,6.37
2018-07-14T04:15:51.448Z,6.37
2018-07-14T04:18:19.845Z,7.00
2018-07-14T04:20:48.097Z,7.40
2018-07-14T04:23:16.419Z,6.30
2018-07-14T04:25:45.599Z,6.07
2018-07-14T04:28:13.826Z,6.83
2018-07-14T04:30:42.120Z,6.90
2018-07-14T04:33:10.393Z,6.53
2018-07-14T04:35:38.698Z,7.53
2018-07-14T04:38:07.184Z,7.17
2018-07-14T04:40:35.419Z,7.40
2018-07-14T04:43:03.668Z,6.73
2018-07-14T04:45:31.880Z,6.80
2018-07-14T04:48:00.147Z,6.87
2018-07-14T04:50:28.566Z,6.60
2018-07-14T04:52:56.811Z,6.50
2018-07-14T04:55:25.092Z,7.20
2018-07-14T04:57:53.371Z,7.00
2018-07-14T05:00:21.640Z,6.83
2018-07-14T05:02:49.867Z,7.30
2018-07-14T05:05:18.128Z,6.60
2018-07-14T05:07:46.412Z,6.90
2018-07-14T05:10:14.671Z,6.87
2018-07-14T05:12:42.960Z,6.23
2018-07-14T05:15:11.317Z,7.73
2018-07-14T05:17:39.538Z,6.97
2018-07-14T05:20:08.180Z,7.13
2018-07-14T05:22:36.485Z,7.63
2018-07-14T05:25:04.775Z,7.00
2018-07-14T05:27:33.007Z,7.07
2018-07-14T05:30:01.239Z,8.27
2018-07-14T05:32:29.480Z,7.40
2018-07-14T05:34:57.734Z,7.57
2018-07-14T05:37:26.008Z,7.83
2018-07-14T05:39:54.303Z,8.60
2018-07-14T05:42:22.567Z,8.40
2018-07-14T05:44:50.827Z,8.30
2018-07-14T05:47:19.131Z,8.33
2018-07-14T05:49:47.501Z,9.03
2018-07-14T05:52:15.788Z,9.00
2018-07-14T05:54:44.043Z,9.37
2018-07-14T05:57:12.341Z,9.20
2018-07-14T05:59:40.613Z,9.20
2018-07-14T06:02:08.893Z,9.53
2018-07-14T06:04:37.170Z,10.80
2018-07-14T06:07:06.199Z,10.43
2018-07-14T06:09:34.200Z,11.00
2018-07-14T06:12:02.479Z,10.40
2018-07-14T06:14:30.743Z,10.70
2018-07-14T06:16:58.989Z,10.73
2018-07-14T06:19:27.409Z,11.03
2018-07-14T06:21:55.735Z,11.43
2018-07-14T06:24:24.044Z,12.00
2018-07-14T06:26:52.416Z,11.07
2018-07-14T06:29:20.704Z,10.93
2018-07-14T06:31:48.953Z,11.73
2018-07-14T06:34:17.246Z,11.97
2018-07-14T06:36:49.216Z,12.23
2018-07-14T06:39:17.565Z,12.25
2018-07-14T06:41:45.862Z,11.95
2018-07-14T06:44:13.837Z,12.05
2018-07-14T06:46:42.132Z,10.78
2018-07-14T06:49:10.375Z,10.48
2018-07-14T06:51:38.713Z,11.35
2018-07-14T06:54:07.012Z,12.10
2018-07-14T06:56:35.281Z,11.15
2018-07-14T06:59:03.590Z,11.38
2018-07-14T07:01:31.594Z,11.05
2018-07-14T07:03:59.897Z,11.30
2018-07-14T07:06:28.118Z,11.95
2018-07-14T07:08:56.438Z,10.78
2018-07-14T07:11:24.703Z,11.18
2018-07-14T07:13:53.018Z,11.33
2018-07-14T07:16:21.732Z,10.28
2018-07-14T07:18:50.149Z,9.73
2018-07-14T07:21:18.480Z,9.95
2018-07-14T07:23:47.007Z,10.80
2018-07-14T07:26:15.322Z,11.05
2018-07-14T07:28:43.605Z,11.78
2018-07-14T07:31:11.838Z,11.40
2018-07-14T07:33:40.104Z,13.13
2018-07-14T07:36:08.354Z,13.10
2018-07-14T07:38:37.228Z,13.40
2018-07-14T07:41:05.466Z,12.63
2018-07-14T07:43:33.734Z,15.78
2018-07-14T07:46:02.010Z,20.10
2018-07-14T07:48:30.296Z,13.78
2018-07-14T07:50:59.434Z,15.25
2018-07-14T07:53:27.699Z,13.70
2018-07-14T07:55:56.123Z,14.78
2018-07-14T07:58:24.436Z,14.73
2018-07-14T08:00:52.675Z,13.80
2018-07-14T08:03:20.980Z,13.22
2018-07-14T08:05:49.305Z,15.55
2018-07-14T08:08:17.583Z,14.53
2018-07-14T08:10:45.806Z,13.40
2018-07-14T08:13:14.067Z,14.75
2018-07-14T08:15:42.290Z,15.23
2018-07-14T08:18:10.302Z,13.85
2018-07-14T08:20:38.602Z,16.95
2018-07-14T08:23:07.448Z,15.05
2018-07-14T08:25:35.670Z,13.88
2018-07-14T08:28:03.912Z,14.13
2018-07-14T08:30:32.338Z,14.50
2018-07-14T08:33:00.602Z,13.55
2018-07-14T08:35:28.843Z,12.23
2018-07-14T08:37:57.198Z,13.25
2018-07-14T08:40:25.403Z,14.43
2018-07-14T08:42:53.719Z,15.75
2018-07-14T08:45:21.975Z,14.50
2018-07-14T08:47:50.304Z,13.30
2018-07-14T08:50:18.315Z,12.40
2018-07-14T08:52:46.602Z,14.20
2018-07-14T08:55:14.860Z,11.68
2018-07-14T08:57:43.135Z,12.13
2018-07-14T09:00:11.449Z,11.78
2018-07-14T09:02:39.849Z,11.00
2018-07-14T09:05:08.291Z,10.85
2018-07-14T09:07:36.822Z,11.15
2018-07-14T09:10:05.515Z,10.82
2018-07-14T09:12:36.729Z,12.40
2018-07-14T09:15:05.172Z,13.45
2018-07-14T09:17:33.592Z,11.18
2018-07-14T09:20:01.932Z,9.50
2018-07-14T09:22:30.365Z,8.85
2018-07-14T09:24:58.685Z,7.17
2018-07-14T09:27:27.117Z,9.30
2018-07-14T09:29:55.518Z,9.35
2018-07-14T09:32:23.823Z,9.65
2018-07-14T09:34:52.088Z,8.40
2018-07-14T09:37:20.370Z,10.08
2018-07-14T09:39:48.646Z,8.73
2018-07-14T09:42:16.928Z,8.78
2018-07-14T09:44:45.175Z,8.10
2018-07-14T09:47:14.083Z,7.28
2018-07-14T09:49:42.314Z,7.90
2018-07-14T09:52:11.107Z,7.08
2018-07-14T09:54:39.339Z,8.28
2018-07-14T09:57:07.908Z,7.37
2018-07-14T09:59:36.191Z,7.00
2018-07-14T10:02:04.556Z,7.20
2018-07-14T10:04:32.808Z,7.72
2018-07-14T10:07:01.117Z,9.33
2018-07-14T10:09:29.383Z,10.03
2018-07-14T10:11:57.732Z,7.20
2018-07-14T10:14:26.188Z,7.03
2018-07-14T10:16:54.209Z,7.12
2018-07-14T10:19:22.578Z,7.83
2018-07-14T10:21:51.120Z,6.70
2018-07-14T10:24:19.389Z,5.97
2018-07-14T10:26:47.669Z,5.87
2018-07-14T10:29:15.934Z,4.95
2018-07-14T10:31:44.233Z,8.93
2018-07-14T10:34:12.232Z,5.05
2018-07-14T10:36:40.476Z,5.78
2018-07-14T10:39:09.331Z,5.75
2018-07-14T10:41:37.634Z,6.37
2018-07-14T10:44:05.916Z,5.97
2018-07-14T10:46:36.308Z,5.75
2018-07-14T10:49:04.547Z,4.90
2018-07-14T10:51:32.859Z,5.80
2018-07-14T10:54:01.717Z,5.50
2018-07-14T10:56:30.043Z,5.92
2018-07-14T10:58:58.817Z,5.35
2018-07-14T11:01:27.094Z,6.22
2018-07-14T11:03:55.346Z,5.65
2018-07-14T11:06:23.616Z,6.80
2018-07-14T11:08:52.068Z,7.17
2018-07-14T11:11:20.377Z,6.72
2018-07-14T11:13:50.029Z,7.65
2018-07-14T11:16:18.339Z,7.80
2018-07-14T11:18:46.307Z,5.97
2018-07-14T11:21:14.600Z,5.42
2018-07-14T11:23:42.919Z,4.85
2018-07-14T11:26:11.227Z,5.62
2018-07-14T11:28:39.493Z,6.42
2018-07-14T11:31:07.758Z,5.75
2018-07-14T11:33:35.996Z,5.17
2018-07-14T11:36:04.406Z,6.55
2018-07-14T11:38:32.662Z,7.30
2018-07-14T11:41:00.948Z,7.37
2018-07-14T11:43:29.192Z,6.65
2018-07-14T11:45:57.502Z,6.22
2018-07-14T11:48:25.733Z,6.33
2018-07-14T11:50:54.079Z,5.60
2018-07-14T11:53:22.350Z,6.22
2018-07-14T11:55:50.584Z,7.03
2018-07-14T11:58:19.845Z,6.30
2018-07-14T12:00:48.307Z,6.03
2018-07-14T12:03:16.587Z,6.00
2018-07-14T12:05:44.900Z,6.58
2018-07-14T12:08:13.164Z,6.28
2018-07-14T12:10:41.513Z,5.92
2018-07-14T12:13:10.018Z,6.00
2018-07-14T12:15:38.323Z,5.83
2018-07-14T12:18:06.568Z,8.68
2018-07-14T12:20:34.577Z,7.95
2018-07-14T12:23:02.946Z,6.30
2018-07-14T12:25:31.187Z,6.42
2018-07-14T12:27:59.615Z,6.40
2018-07-14T12:30:27.972Z,7.33
2018-07-14T12:32:56.287Z,6.42
2018-07-14T12:35:24.646Z,6.60
2018-07-14T12:37:52.922Z,6.55
2018-07-14T12:40:21.224Z,6.10
2018-07-14T12:42:49.540Z,5.35
2018-07-14T12:45:17.851Z,7.12
2018-07-14T12:47:46.175Z,7.28
2018-07-14T12:50:14.494Z,6.03
2018-07-14T12:52:42.771Z,5.53
2018-07-14T12:55:10.955Z,6.17
2018-07-14T12:57:39.227Z,5.78
2018-07-14T13:00:08.012Z,8.65
2018-07-14T13:02:36.247Z,6.83
2018-07-14T13:05:04.570Z,5.85
2018-07-14T13:07:39.385Z,18.00
2018-07-14T13:10:08.639Z,11.75
2018-07-14T13:12:37.289Z,15.75
2018-07-14T13:15:05.848Z,6.83
2018-07-14T13:17:34.116Z,7.72
2018-07-14T13:20:02.639Z,7.50
2018-07-14T13:22:31.129Z,7.50
2018-07-14T13:24:59.462Z,8.08
2018-07-14T13:27:27.800Z,6.60
2018-07-14T13:29:56.431Z,7.58
2018-07-14T13:32:24.938Z,6.65
2018-07-14T13:34:54.300Z,6.25
2018-07-14T13:37:23.162Z,6.05
2018-07-14T13:39:51.203Z,8.65
2018-07-14T13:42:19.588Z,6.17
2018-07-14T13:44:47.856Z,6.62
2018-07-14T13:47:16.252Z,6.62
2018-07-14T13:49:44.863Z,6.28
2018-07-14T13:52:13.164Z,7.55
2018-07-14T13:54:41.487Z,5.62
2018-07-14T13:57:09.758Z,6.05
2018-07-14T13:59:40.018Z,7.12
2018-07-14T14:02:08.011Z,7.47
2018-07-14T14:04:36.297Z,8.18
2018-07-14T14:07:04.712Z,7.47
2018-07-14T14:09:33.039Z,7.30
2018-07-14T14:12:01.316Z,6.53
2018-07-14T14:14:29.635Z,7.72
2018-07-14T14:16:59.264Z,7.00
2018-07-14T14:19:27.906Z,7.08
2018-07-14T14:21:56.224Z,6.62
2018-07-14T14:24:24.485Z,15.18
2018-07-14T14:26:52.603Z,6.08
2018-07-14T14:29:21.362Z,6.30
2018-07-14T14:31:49.588Z,6.87
2018-07-14T14:34:18.084Z,5.58
2018-07-14T14:36:46.643Z,5.85
2018-07-14T14:39:15.923Z,6.12
2018-07-14T14:41:44.334Z,6.20
2018-07-14T14:44:12.696Z,6.70
2018-07-14T14:46:40.942Z,6.35
2018-07-14T14:49:09.279Z,6.83
2018-07-14T14:51:37.540Z,7.90
2018-07-14T14:54:05.771Z,6.65
2018-07-14T14:56:34.055Z,5.65
2018-07-14T14:59:02.291Z,6.10
2018-07-14T15:01:30.592Z,5.60
2018-07-14T15:03:58.881Z,5.40
2018-07-14T15:06:27.172Z,6.45
2018-07-14T15:08:56.451Z,5.08
2018-07-14T15:11:24.740Z,5.70
2018-07-14T15:13:52.678Z,5.80
2018-07-14T15:16:21.014Z,5.35
2018-07-14T15:18:49.009Z,5.22
2018-07-14T15:21:17.280Z,4.80
2018-07-14T15:23:45.520Z,5.15
2018-07-14T15:26:13.826Z,5.10
2018-07-14T15:28:41.886Z,6.05
2018-07-14T15:31:10.396Z,6.90
2018-07-14T15:33:38.699Z,5.70
2018-07-14T15:36:07.045Z,4.75
2018-07-14T15:38:35.320Z,4.47
2018-07-14T15:41:03.603Z,5.40
2018-07-14T15:43:31.920Z,4.42
2018-07-14T15:46:00.240Z,4.95
2018-07-14T15:48:28.514Z,4.72
2018-07-14T15:50:56.785Z,4.35
2018-07-14T15:53:25.105Z,4.25
2018-07-14T15:55:53.379Z,4.37
2018-07-14T15:58:21.641Z,5.28
2018-07-14T16:00:49.868Z,5.20
2018-07-14T16:03:18.142Z,4.58
2018-07-14T16:05:46.755Z,4.78
2018-07-14T16:08:15.056Z,7.75
2018-07-14T16:10:43.363Z,7.00
2018-07-14T16:13:11.360Z,5.80
2018-07-14T16:15:39.646Z,4.45
2018-07-14T16:18:08.426Z,3.47
2018-07-14T16:20:36.746Z,4.12
2018-07-14T16:23:05.866Z,4.08
2018-07-14T16:25:35.397Z,3.90
2018-07-14T16:28:04.403Z,4.47
2018-07-14T16:30:33.559Z,4.00
2018-07-14T16:33:01.931Z,4.28
2018-07-14T16:35:31.315Z,3.92
2018-07-14T16:37:59.708Z,3.27
2018-07-14T16:40:27.982Z,3.25
2018-07-14T16:42:58.276Z,3.50
2018-07-14T16:45:26.550Z,3.25
2018-07-14T16:47:54.819Z,3.20
2018-07-14T16:50:23.094Z,3.35
2018-07-14T16:52:51.443Z,3.37
2018-07-14T16:55:19.709Z,3.00
2018-07-14T16:57:48.118Z,3.02
2018-07-14T17:00:16.375Z,3.25
2018-07-14T17:02:44.670Z,3.37
2018-07-14T17:05:12.960Z,3.05
2018-07-14T17:07:41.324Z,3.37
2018-07-14T17:10:10.317Z,3.17
2018-07-14T17:12:38.576Z,2.98
2018-07-14T17:15:06.848Z,3.17
2018-07-14T17:17:35.144Z,3.50
2018-07-14T17:20:03.462Z,2.67
2018-07-14T17:22:31.725Z,3.33
2018-07-14T17:25:00.176Z,2.95
2018-07-14T17:27:28.419Z,2.85
2018-07-14T17:29:56.413Z,2.30
2018-07-14T17:32:24.696Z,2.50
2018-07-14T17:34:52.943Z,2.70
2018-07-14T17:37:20.973Z,2.80
2018-07-14T17:39:49.200Z,4.30
2018-07-14T17:42:17.504Z,3.20
2018-07-14T17:44:45.780Z,2.92
2018-07-14T17:47:14.021Z,2.60
2018-07-14T17:49:41.970Z,3.05
2018-07-14T17:52:10.919Z,3.05
2018-07-14T17:54:39.508Z,3.15
2018-07-14T17:57:07.797Z,3.15
2018-07-14T17:59:36.249Z,3.58
2018-07-14T18:02:04.640Z,3.15
2018-07-14T18:04:32.944Z,2.75
2018-07-14T18:07:01.186Z,2.52
2018-07-14T18:09:29.456Z,2.70
2018-07-14T18:11:57.738Z,2.80
2018-07-14T18:14:26.003Z,2.98
2018-07-14T18:16:54.274Z,3.15
2018-07-14T18:19:22.556Z,3.05
2018-07-14T18:21:50.857Z,4.10
2018-07-14T18:24:19.100Z,11.78
2018-07-14T18:26:47.394Z,5.75
2018-07-14T18:29:16.380Z,5.80
2018-07-14T18:31:44.690Z,14.43
2018-07-14T18:34:12.944Z,8.60
2018-07-14T18:36:41.243Z,11.80
2018-07-14T18:39:09.628Z,5.20
2018-07-14T18:41:37.904Z,3.17
2018-07-14T18:44:06.204Z,3.72
2018-07-14T18:46:34.439Z,4.05
2018-07-14T18:49:02.738Z,4.20
2018-07-14T18:51:30.976Z,3.45
2018-07-14T18:53:59.380Z,3.35
2018-07-14T18:56:27.684Z,2.80
2018-07-14T18:58:55.700Z,2.75
2018-07-14T19:01:24.855Z,3.10
2018-07-14T19:03:53.159Z,2.72
2018-07-14T19:06:21.429Z,3.02
2018-07-14T19:08:49.733Z,2.98
2018-07-14T19:11:18.118Z,3.85
2018-07-14T19:13:46.507Z,4.10
2018-07-14T19:16:14.747Z,3.30
2018-07-14T19:18:43.039Z,3.00
2018-07-14T19:21:11.681Z,2.85
2018-07-14T19:23:40.954Z,3.15
2018-07-14T19:26:09.663Z,2.72
2018-07-14T19:28:37.837Z,3.10
2018-07-14T19:31:06.101Z,2.87
2018-07-14T19:33:34.677Z,3.47
2018-07-14T19:36:03.006Z,2.90
2018-07-14T19:38:31.235Z,3.37
2018-07-14T19:40:59.542Z,3.10
2018-07-14T19:43:27.757Z,3.42
2018-07-14T19:45:55.993Z,3.72
2018-07-14T19:48:24.222Z,3.70
2018-07-14T19:50:52.979Z,3.58
2018-07-14T19:53:21.518Z,3.77
2018-07-14T19:55:49.702Z,3.42
2018-07-14T19:58:18.057Z,3.52
2018-07-14T20:00:46.634Z,3.55
2018-07-14T20:03:15.489Z,4.37
2018-07-14T20:05:44.127Z,4.37
2018-07-14T20:08:12.100Z,4.10
2018-07-14T20:10:40.414Z,3.87
2018-07-14T20:13:08.772Z,4.25
2018-07-14T20:15:36.967Z,4.15
2018-07-14T20:18:06.303Z,4.83
2018-07-14T20:20:34.583Z,4.62
2018-07-14T20:23:02.839Z,4.42
2018-07-14T20:25:31.455Z,4.12
2018-07-14T20:27:59.751Z,4.08
2018-07-14T20:30:28.062Z,4.33
2018-07-14T20:32:56.430Z,4.42
2018-07-14T20:35:24.743Z,4.03
2018-07-14T20:37:53.592Z,4.72
2018-07-14T20:40:21.824Z,4.60
2018-07-14T20:42:50.051Z,4.25
2018-07-14T20:45:18.419Z,5.33
2018-07-14T20:47:46.701Z,5.10
2018-07-14T20:50:14.987Z,4.37
2018-07-14T20:52:43.231Z,4.70
2018-07-14T20:55:11.561Z,3.83
2018-07-14T20:57:39.820Z,3.70
2018-07-14T21:00:08.058Z,3.87
2018-07-14T21:02:36.326Z,4.30
2018-07-14T21:05:04.328Z,3.90
2018-07-14T21:07:32.571Z,3.95
2018-07-14T21:10:00.581Z,4.15
2018-07-14T21:12:28.890Z,3.60
2018-07-14T21:14:57.180Z,4.30
2018-07-14T21:17:26.427Z,3.60
2018-07-14T21:19:55.172Z,4.15
2018-07-14T21:22:23.455Z,3.83
2018-07-14T21:24:51.487Z,12.07
2018-07-14T21:27:19.724Z,4.53
2018-07-14T21:29:48.002Z,4.47
2018-07-14T21:32:16.315Z,4.25
2018-07-14T21:34:44.561Z,4.12
2018-07-14T21:37:12.874Z,4.10
2018-07-14T21:39:41.163Z,4.47
2018-07-14T21:42:09.416Z,4.42
2018-07-14T21:44:37.707Z,4.28
2018-07-14T21:47:05.977Z,4.58
2018-07-14T21:49:34.259Z,3.90
2018-07-14T21:52:09.215Z,4.17
2018-07-14T21:54:37.220Z,4.30
2018-07-14T21:57:05.563Z,3.95
2018-07-14T21:59:33.907Z,3.80
2018-07-14T22:02:06.157Z,4.35
2018-07-14T22:04:35.346Z,7.35
2018-07-14T22:07:03.651Z,6.30
2018-07-14T22:09:32.131Z,4.42
2018-07-14T22:12:00.478Z,4.40
2018-07-14T22:14:28.691Z,4.08
2018-07-14T22:16:56.961Z,4.47
2018-07-14T22:19:25.267Z,4.08
2018-07-14T22:21:53.531Z,4.00
2018-07-14T22:24:21.576Z,4.20
2018-07-14T22:26:50.029Z,4.10
2018-07-14T22:29:18.338Z,3.62
2018-07-14T22:31:46.564Z,4.20
2018-07-14T22:34:15.028Z,4.30
2018-07-14T22:36:43.366Z,4.60
2018-07-14T22:39:11.593Z,4.60
2018-07-14T22:41:43.832Z,5.25
2018-07-14T22:44:12.102Z,4.50
2018-07-14T22:46:40.951Z,4.70
2018-07-14T22:49:09.222Z,4.58
2018-07-14T22:51:37.473Z,4.40
2018-07-14T22:54:05.780Z,5.00
2018-07-14T22:56:34.000Z,4.75
2018-07-14T22:59:02.230Z,4.83
2018-07-14T23:01:30.488Z,4.83
2018-07-14T23:03:58.779Z,4.97
2018-07-14T23:06:27.032Z,4.72
2018-07-14T23:08:55.238Z,5.40
2018-07-14T23:11:23.462Z,5.33
2018-07-14T23:13:51.864Z,5.20
2018-07-14T23:16:20.116Z,5.22
2018-07-14T23:18:48.473Z,5.28
2018-07-14T23:21:16.743Z,5.40
2018-07-14T23:23:45.073Z,5.97
2018-07-14T23:26:13.375Z,5.80
2018-07-14T23:28:41.645Z,5.80
2018-07-14T23:31:09.918Z,5.70
2018-07-14T23:33:38.190Z,5.08
2018-07-14T23:36:06.772Z,5.80
2018-07-14T23:38:35.182Z,5.57
2018-07-14T23:41:03.547Z,5.23
2018-07-14T23:43:31.789Z,5.20
2018-07-14T23:46:00.074Z,5.33
2018-07-14T23:48:28.342Z,6.20
2018-07-14T23:50:56.595Z,5.95
2018-07-14T23:53:24.854Z,5.60
2018-07-14T23:55:53.193Z,5.13
2018-07-14T23:58:21.462Z,5.83
